Time;durP1;ratioP1;P1;durP2;ratioP2;P2;SDS_P1;SDS_P2;PMS_P1;PMS_P2;Temp;Humidity;BMP_temperature;BMP_pressure;BME280_temperature;BME280_humidity;BME280_pressure;Samples;Min_cycle;Max_cycle;Signal;HPM_P1;HPM_P2
2024/02/27 00:01:47;;;;;;;10.07;5.38;;;;;;;-144.57;100.00;62443.72;5048838;28;20408;-61
2024/02/27 00:04:13;;;;;;;11.25;4.88;;;;;;;-144.57;100.00;62443.72;5032782;28;20049;-62
2024/02/27 00:06:40;;;;;;;13.05;5.13;;;;;;;-144.57;100.00;62443.72;5033546;28;20037;-63
2024/02/27 00:09:08;;;;;;;11.07;5.30;;;;;;;-144.57;100.00;62443.72;5033887;28;20049;-62
2024/02/27 00:11:34;;;;;;;10.00;4.90;;;;;;;-144.57;100.00;62443.72;5032221;28;20045;-64
2024/02/27 00:14:01;;;;;;;9.65;5.18;;;;;;;-144.57;100.00;62443.72;5034034;28;20056;-62
2024/02/27 00:16:26;;;;;;;15.35;5.60;;;;;;;-144.57;100.00;62443.72;5034038;28;20041;-64
2024/02/27 00:18:52;;;;;;;13.05;5.22;;;;;;;-144.57;100.00;62443.72;5034488;28;20037;-63
2024/02/27 00:21:18;;;;;;;10.88;5.20;;;;;;;-144.57;100.00;62443.72;5034764;28;20048;-67
2024/02/27 00:23:44;;;;;;;8.35;4.85;;;;;;;-144.57;100.00;62443.72;5049675;28;20053;-62
2024/02/27 00:26:10;;;;;;;9.00;5.22;;;;;;;-144.57;100.00;62443.72;5033689;28;20430;-63
2024/02/27 00:28:36;;;;;;;13.57;5.38;;;;;;;-144.57;100.00;62443.72;5033478;28;20053;-63
2024/02/27 00:31:02;;;;;;;13.15;5.22;;;;;;;-144.57;100.00;62443.72;5034025;28;20434;-65
2024/02/27 00:33:29;;;;;;;10.45;5.38;;;;;;;-144.57;100.00;62443.72;5035397;28;20446;-63
2024/02/27 00:35:54;;;;;;;9.35;5.15;;;;;;;-144.57;100.00;62443.72;5037019;28;20507;-63
2024/02/27 00:38:20;;;;;;;11.07;5.10;;;;;;;-144.57;100.00;62443.72;5033529;28;20041;-62
2024/02/27 00:40:45;;;;;;;8.23;4.63;;;;;;;-144.57;100.00;62443.72;5035693;28;20037;-62
2024/02/27 00:43:11;;;;;;;10.18;5.35;;;;;;;-144.57;100.00;62443.72;5034715;28;20049;-62
2024/02/27 00:45:37;;;;;;;8.70;5.40;;;;;;;-144.57;100.00;62443.72;5018806;28;20068;-64
2024/02/27 00:48:03;;;;;;;11.45;5.30;;;;;;;-144.57;100.00;62443.72;5030649;28;20041;-63
2024/02/27 00:50:30;;;;;;;11.50;5.35;;;;;;;-144.57;100.00;62443.72;5033072;28;20037;-62
2024/02/27 00:52:55;;;;;;;7.03;4.85;;;;;;;-144.57;100.00;62443.72;5032715;28;20049;-62
2024/02/27 00:55:21;;;;;;;9.13;5.47;;;;;;;-144.57;100.00;62443.72;5032866;28;20056;-64
2024/02/27 00:57:47;;;;;;;8.73;5.38;;;;;;;-144.57;100.00;62443.72;5028913;28;20132;-62
2024/02/27 01:00:13;;;;;;;10.70;5.15;;;;;;;-144.57;100.00;62443.72;5011729;28;20503;-64
2024/02/27 01:02:41;;;;;;;9.35;5.40;;;;;;;-144.57;100.00;62443.72;5011424;28;20049;-63
2024/02/27 01:05:08;;;;;;;9.40;4.55;;;;;;;-144.57;100.00;62443.72;5031471;28;20037;-62
2024/02/27 01:07:34;;;;;;;9.60;4.93;;;;;;;-144.57;100.00;62443.72;5031300;28;20091;-64
2024/02/27 01:10:00;;;;;;;11.45;5.97;;;;;;;-144.57;100.00;62443.72;5033447;28;20106;-61
2024/02/27 01:12:26;;;;;;;13.27;5.72;;;;;;;-144.57;100.00;62443.72;5047721;28;20049;-62
2024/02/27 01:14:51;;;;;;;11.95;5.15;;;;;;;-144.57;100.00;62443.72;5031884;28;20521;-64
2024/02/27 01:17:17;;;;;;;10.35;4.80;;;;;;;-144.57;100.00;62443.72;5032414;28;20050;-64
2024/02/27 01:19:43;;;;;;;9.77;5.57;;;;;;;-144.57;100.00;62443.72;5032076;28;20037;-64
2024/02/27 01:22:09;;;;;;;10.75;5.82;;;;;;;-144.57;100.00;62443.72;5031910;28;20049;-61
2024/02/27 01:24:34;;;;;;;10.23;5.22;;;;;;;-144.57;100.00;62443.72;5021933;28;20619;-61
2024/02/27 01:27:00;;;;;;;11.98;5.63;;;;;;;-144.57;100.00;62443.72;5012613;28;20061;-62
2024/02/27 01:29:26;;;;;;;9.73;5.60;;;;;;;-144.57;100.00;62443.72;5012395;28;20041;-64
2024/02/27 01:31:55;;;;;;;9.23;5.70;;;;;;;-144.57;100.00;62443.72;5012788;28;20041;-64
2024/02/27 01:34:20;;;;;;;9.57;5.05;;;;;;;-144.57;100.00;62443.72;5011230;28;20077;-63
2024/02/27 01:36:46;;;;;;;14.75;5.32;;;;;;;-144.57;100.00;62443.72;5012749;28;20069;-64
2024/02/27 01:39:13;;;;;;;11.23;5.80;;;;;;;-144.57;100.00;62443.72;5012730;28;20507;-63
2024/02/27 01:41:48;;;;;;;11.80;5.43;;;;;;;-144.57;100.00;62443.72;5011121;28;20045;-64
2024/02/27 01:44:14;;;;;;;11.00;5.65;;;;;;;-144.57;100.00;62443.72;5012545;28;20415;-62
2024/02/27 01:46:40;;;;;;;10.82;5.75;;;;;;;-144.57;100.00;62443.72;5012380;28;20034;-64
2024/02/27 01:49:08;;;;;;;11.88;5.57;;;;;;;-144.57;100.00;62443.72;5030054;28;20487;-63
2024/02/27 01:51:34;;;;;;;9.13;5.22;;;;;;;-144.57;100.00;62443.72;5047574;28;20464;-62
2024/02/27 01:54:01;;;;;;;10.98;6.00;;;;;;;-144.57;100.00;62443.72;5032229;28;20065;-63
2024/02/27 01:56:26;;;;;;;9.63;5.80;;;;;;;-144.57;100.00;62443.72;5047115;28;20491;-64
2024/02/27 01:58:52;;;;;;;10.65;6.07;;;;;;;-144.57;100.00;62443.72;5032286;28;20080;-62
2024/02/27 02:01:20;;;;;;;10.60;5.43;;;;;;;-144.57;100.00;62443.72;5031660;28;20041;-62
2024/02/27 02:03:45;;;;;;;13.05;5.50;;;;;;;-144.57;100.00;62443.72;5032252;28;20392;-64
2024/02/27 02:06:11;;;;;;;12.98;5.90;;;;;;;-144.57;100.00;62443.72;5017358;28;20100;-64
2024/02/27 02:08:37;;;;;;;11.10;5.63;;;;;;;-144.57;100.00;62443.72;5012417;28;20061;-61
2024/02/27 02:11:07;;;;;;;8.75;5.15;;;;;;;-144.57;100.00;62443.72;5011713;28;20103;-62
2024/02/27 02:13:33;;;;;;;13.23;6.22;;;;;;;-144.57;100.00;62443.72;5010862;28;20052;-62
2024/02/27 02:15:59;;;;;;;14.85;5.90;;;;;;;-144.57;100.00;62443.72;5011800;28;20041;-64
2024/02/27 02:18:25;;;;;;;11.02;5.40;;;;;;;-144.57;100.00;62443.72;4994300;28;20452;-60
2024/02/27 02:20:50;;;;;;;12.95;5.80;;;;;;;-144.57;100.00;62443.72;5011519;28;20041;-64
2024/02/27 02:23:16;;;;;;;9.07;5.15;;;;;;;-144.57;100.00;62443.72;5029753;28;20081;-63
2024/02/27 02:25:42;;;;;;;12.98;5.63;;;;;;;-144.57;100.00;62443.72;5027756;28;20125;-64
2024/02/27 02:28:08;;;;;;;11.10;5.35;;;;;;;-144.57;100.00;62443.72;5011355;28;20045;-63
2024/02/27 02:30:33;;;;;;;9.70;5.35;;;;;;;-144.57;100.00;62443.72;5010373;28;20084;-65
2024/02/27 02:32:59;;;;;;;10.57;5.80;;;;;;;-144.57;100.00;62443.72;5026862;28;20046;-61
2024/02/27 02:35:24;;;;;;;14.05;6.35;;;;;;;-144.57;100.00;62443.72;5010417;28;20133;-62
2024/02/27 02:37:51;;;;;;;9.95;5.35;;;;;;;-144.57;100.00;62443.72;5011227;28;20046;-62
2024/02/27 02:40:18;;;;;;;12.73;6.50;;;;;;;-144.57;100.00;62443.72;5011583;28;20042;-63
2024/02/27 02:42:44;;;;;;;9.77;5.68;;;;;;;-144.57;100.00;62443.72;5011510;28;20068;-60
2024/02/27 02:45:10;;;;;;;13.27;6.10;;;;;;;-144.57;100.00;62443.72;5011592;28;20079;-62
2024/02/27 02:47:36;;;;;;;13.02;5.50;;;;;;;-144.57;100.00;62443.72;5013885;28;20495;-64
2024/02/27 02:50:02;;;;;;;11.82;6.20;;;;;;;-144.57;100.00;62443.72;5029887;28;20042;-62
2024/02/27 02:52:29;;;;;;;10.60;5.70;;;;;;;-144.57;100.00;62443.72;5030908;28;20045;-62
2024/02/27 02:54:55;;;;;;;13.70;6.35;;;;;;;-144.57;100.00;62443.72;5031161;28;20325;-64
2024/02/27 02:57:20;;;;;;;11.10;5.13;;;;;;;-144.57;100.00;62443.72;5030905;28;20053;-63
2024/02/27 02:59:46;;;;;;;9.93;5.45;;;;;;;-144.57;100.00;62443.72;5031219;28;20045;-62
2024/02/27 03:02:11;;;;;;;12.88;5.85;;;;;;;-144.57;100.00;62443.72;5029433;28;20057;-62
2024/02/27 03:04:37;;;;;;;14.25;5.60;;;;;;;-144.57;100.00;62443.72;5029912;28;20034;-63
2024/02/27 03:07:03;;;;;;;12.60;6.32;;;;;;;-144.57;100.00;62443.72;5030756;28;20216;-62
2024/02/27 03:09:30;;;;;;;10.25;5.22;;;;;;;-144.57;100.00;62443.72;5031060;28;20507;-63
2024/02/27 03:11:56;;;;;;;12.13;5.80;;;;;;;-144.57;100.00;62443.72;5029718;28;20045;-62
2024/02/27 03:14:22;;;;;;;13.73;6.10;;;;;;;-144.57;100.00;62443.72;5031062;28;20518;-64
2024/02/27 03:16:49;;;;;;;9.55;5.47;;;;;;;-144.57;100.00;62443.72;5031184;28;20046;-62
2024/02/27 03:19:15;;;;;;;11.77;5.88;;;;;;;-144.57;100.00;62443.72;5030621;28;20052;-62
2024/02/27 03:21:40;;;;;;;10.40;6.43;;;;;;;-144.57;100.00;62443.72;5046055;28;20045;-63
2024/02/27 03:24:07;;;;;;;11.55;5.88;;;;;;;-144.57;100.00;62443.72;5045512;28;20574;-63
2024/02/27 03:26:33;;;;;;;10.23;5.63;;;;;;;-144.57;100.00;62443.72;5031113;28;20049;-63
2024/02/27 03:28:59;;;;;;;8.93;5.75;;;;;;;-144.57;100.00;62443.72;5031013;28;20061;-64
2024/02/27 03:31:25;;;;;;;11.32;6.05;;;;;;;-144.57;100.00;62443.72;5030844;28;20041;-63
2024/02/27 03:33:50;;;;;;;12.82;6.10;;;;;;;-144.57;100.00;62443.72;5030356;28;20054;-61
2024/02/27 03:36:16;;;;;;;12.77;6.47;;;;;;;-144.57;100.00;62443.72;5045391;28;20373;-63
2024/02/27 03:38:42;;;;;;;11.52;6.07;;;;;;;-144.57;100.00;62443.72;5032326;28;20080;-63
2024/02/27 03:41:15;;;;;;;14.05;6.53;;;;;;;-144.57;100.00;62443.72;5034655;28;20041;-64
2024/02/27 03:43:41;;;;;;;11.20;5.88;;;;;;;-144.57;100.00;62443.72;5034385;28;20041;-62
2024/02/27 03:46:07;;;;;;;14.90;6.13;;;;;;;-144.57;100.00;62443.72;5033135;28;20423;-63
2024/02/27 03:48:33;;;;;;;11.55;5.65;;;;;;;-144.57;100.00;62443.72;5033868;28;20041;-61
2024/02/27 03:50:58;;;;;;;10.23;5.60;;;;;;;-144.57;100.00;62443.72;5034012;28;20513;-62
2024/02/27 03:53:24;;;;;;;8.25;5.07;;;;;;;-144.57;100.00;62443.72;5034134;28;20045;-63
2024/02/27 03:55:50;;;;;;;10.77;6.18;;;;;;;-144.57;100.00;62443.72;5032930;28;20168;-63
2024/02/27 03:58:15;;;;;;;13.35;6.15;;;;;;;-144.57;100.00;62443.72;5034438;28;20061;-62
2024/02/27 04:00:41;;;;;;;10.65;6.07;;;;;;;-144.57;100.00;62443.72;5030649;28;20124;-62
2024/02/27 04:03:06;;;;;;;11.02;6.22;;;;;;;-144.57;100.00;62443.72;5014317;28;20050;-63
2024/02/27 04:05:32;;;;;;;10.85;5.97;;;;;;;-144.57;100.00;62443.72;5029568;28;20056;-63
2024/02/27 04:07:58;;;;;;;11.95;6.13;;;;;;;-144.57;100.00;62443.72;5013950;28;20060;-63
2024/02/27 04:10:24;;;;;;;13.82;5.90;;;;;;;-144.57;100.00;62443.72;5004824;28;20495;-65
2024/02/27 04:12:49;;;;;;;10.18;5.70;;;;;;;-144.57;100.00;62443.72;5032821;28;20064;-62
2024/02/27 04:15:15;;;;;;;14.55;6.25;;;;;;;-144.57;100.00;62443.72;5033623;28;20041;-63
2024/02/27 04:17:41;;;;;;;11.13;6.38;;;;;;;-144.57;100.00;62443.72;5033819;28;20472;-63
2024/02/27 04:20:08;;;;;;;14.23;5.93;;;;;;;-144.57;100.00;62443.72;5022627;28;20077;-65
2024/02/27 04:22:34;;;;;;;11.88;6.35;;;;;;;-144.57;100.00;62443.72;5031267;28;20057;-62
2024/02/27 04:24:59;;;;;;;12.40;6.13;;;;;;;-144.57;100.00;62443.72;5048770;28;20041;-64
2024/02/27 04:27:25;;;;;;;9.65;5.60;;;;;;;-144.57;100.00;62443.72;5033442;28;20065;-63
2024/02/27 04:29:51;;;;;;;12.35;5.70;;;;;;;-144.57;100.00;62443.72;5048774;28;20124;-65
2024/02/27 04:32:17;;;;;;;14.75;5.93;;;;;;;-144.57;100.00;62443.72;5033374;28;20061;-63
2024/02/27 04:34:42;;;;;;;11.32;6.60;;;;;;;-144.57;100.00;62443.72;5031438;28;20072;-64
2024/02/27 04:37:09;;;;;;;12.07;6.95;;;;;;;-144.57;100.00;62443.72;5012339;28;20044;-64
2024/02/27 04:39:35;;;;;;;9.30;5.88;;;;;;;-144.57;100.00;62443.72;5012745;28;20037;-62
2024/02/27 04:42:01;;;;;;;9.27;5.78;;;;;;;-144.57;100.00;62443.72;5011817;28;20130;-63
2024/02/27 04:44:26;;;;;;;15.20;6.80;;;;;;;-144.57;100.00;62443.72;5013666;28;20126;-63
2024/02/27 04:46:52;;;;;;;14.57;6.60;;;;;;;-144.57;100.00;62443.72;5012214;28;20499;-61
2024/02/27 04:49:17;;;;;;;10.55;5.95;;;;;;;-144.57;100.00;62443.72;5029565;28;20045;-63
2024/02/27 04:51:44;;;;;;;10.75;5.65;;;;;;;-144.57;100.00;62443.72;5032057;28;20045;-65
2024/02/27 04:54:10;;;;;;;12.65;5.90;;;;;;;-144.57;100.00;62443.72;5033291;28;20578;-63
2024/02/27 04:56:40;;;;;;;15.88;6.28;;;;;;;-144.57;100.00;62443.72;5032794;28;20073;-64
2024/02/27 04:59:06;;;;;;;10.90;5.85;;;;;;;-144.57;100.00;62443.72;5033338;28;20483;-62
2024/02/27 05:01:32;;;;;;;11.57;5.85;;;;;;;-144.57;100.00;62443.72;5032537;28;20051;-65
2024/02/27 05:03:57;;;;;;;10.73;5.57;;;;;;;-144.57;100.00;62443.72;5033020;28;20095;-62
2024/02/27 05:06:23;;;;;;;10.45;5.88;;;;;;;-144.57;100.00;62443.72;5031201;28;20499;-63
2024/02/27 05:08:49;;;;;;;9.77;5.50;;;;;;;-144.57;100.00;62443.72;5033053;28;20064;-62
2024/02/27 05:11:14;;;;;;;13.18;5.57;;;;;;;-144.57;100.00;62443.72;5028300;28;20041;-61
2024/02/27 05:13:40;;;;;;;13.40;5.45;;;;;;;-144.57;100.00;62443.72;5026335;28;20204;-63
2024/02/27 05:16:07;;;;;;;10.75;5.72;;;;;;;-144.57;100.00;62443.72;5011636;28;20419;-62
2024/02/27 05:18:32;;;;;;;11.23;6.10;;;;;;;-144.57;100.00;62443.72;5012023;28;20125;-63
2024/02/27 05:20:59;;;;;;;11.60;5.95;;;;;;;-144.57;100.00;62443.72;5010931;28;20049;-63
2024/02/27 05:23:25;;;;;;;14.63;6.20;;;;;;;-144.57;100.00;62443.72;5025764;28;20054;-63
2024/02/27 05:25:50;;;;;;;9.88;5.80;;;;;;;-144.57;100.00;62443.72;5010499;28;20356;-66
2024/02/27 05:28:16;;;;;;;10.57;5.88;;;;;;;-144.57;100.00;62443.72;5012132;28;20076;-65
2024/02/27 05:30:43;;;;;;;14.25;6.72;;;;;;;-144.57;100.00;62443.72;5012393;28;20129;-65
2024/02/27 05:33:09;;;;;;;10.52;5.75;;;;;;;-144.57;100.00;62443.72;5010184;28;20042;-65
2024/02/27 05:35:35;;;;;;;13.95;6.15;;;;;;;-144.57;100.00;62443.72;5012838;28;20061;-66
2024/02/27 05:38:00;;;;;;;13.88;6.30;;;;;;;-144.57;100.00;62443.72;5010761;28;20068;-65
2024/02/27 05:40:26;;;;;;;12.48;5.53;;;;;;;-144.57;100.00;62443.72;5011144;28;20041;-66
2024/02/27 05:42:51;;;;;;;13.80;6.70;;;;;;;-144.57;100.00;62443.72;5027350;28;20046;-65
2024/02/27 05:45:17;;;;;;;10.25;6.10;;;;;;;-144.57;100.00;62443.72;5012637;28;20490;-65
2024/02/27 05:47:43;;;;;;;11.43;5.78;;;;;;;-144.57;100.00;62443.72;5015440;28;20141;-64
2024/02/27 05:50:09;;;;;;;10.73;5.93;;;;;;;-144.57;100.00;62443.72;5047248;28;20128;-66
2024/02/27 05:52:34;;;;;;;15.48;6.03;;;;;;;-144.57;100.00;62443.72;5032095;28;20053;-64
2024/02/27 05:55:00;;;;;;;12.13;6.35;;;;;;;-144.57;100.00;62443.72;5031771;28;20503;-65
2024/02/27 05:57:28;;;;;;;12.63;6.82;;;;;;;-144.57;100.00;62443.72;5029915;28;20057;-62
2024/02/27 05:59:54;;;;;;;18.17;5.90;;;;;;;-144.57;100.00;62443.72;5007175;28;20042;-64
2024/02/27 06:02:19;;;;;;;10.45;6.60;;;;;;;-144.57;100.00;62443.72;5014537;28;20076;-63
2024/02/27 06:04:45;;;;;;;10.27;5.85;;;;;;;-144.57;100.00;62443.72;5010529;28;20108;-63
2024/02/27 06:07:11;;;;;;;11.15;6.53;;;;;;;-144.57;100.00;62443.72;5015681;28;20427;-63
2024/02/27 06:09:37;;;;;;;12.63;6.45;;;;;;;-144.57;100.00;62443.72;5013923;28;20245;-63
2024/02/27 06:12:03;;;;;;;11.55;6.22;;;;;;;-144.57;100.00;62443.72;5014258;28;20510;-62
2024/02/27 06:14:29;;;;;;;13.48;5.85;;;;;;;-144.57;100.00;62443.72;5030173;28;20041;-64
2024/02/27 06:16:55;;;;;;;14.38;6.35;;;;;;;-144.57;100.00;62443.72;5030945;28;20037;-63
2024/02/27 06:19:26;;;;;;;11.52;6.47;;;;;;;-144.57;100.00;62443.72;5031109;28;20522;-64
2024/02/27 06:22:11;;;;;;;8.60;5.72;;;;;;;-144.57;100.00;62443.72;5029757;28;20072;-63
2024/02/27 06:24:38;;;;;;;12.93;6.38;;;;;;;-144.57;100.00;62443.72;5044205;28;20499;-62
2024/02/27 06:27:04;;;;;;;12.63;6.70;;;;;;;-144.57;100.00;62443.72;5029790;28;20406;-62
2024/02/27 06:29:30;;;;;;;11.82;6.22;;;;;;;-144.57;100.00;62443.72;5020028;28;20037;-61
2024/02/27 06:31:56;;;;;;;15.30;6.60;;;;;;;-144.57;100.00;62443.72;5012510;28;20050;-63
2024/02/27 06:34:22;;;;;;;15.50;6.10;;;;;;;-144.57;100.00;62443.72;5031010;28;20410;-61
2024/02/27 06:36:48;;;;;;;14.95;6.50;;;;;;;-144.57;100.00;62443.72;5029684;28;20037;-63
2024/02/27 06:39:14;;;;;;;16.17;6.75;;;;;;;-144.57;100.00;62443.72;5029760;28;20038;-63
2024/02/27 06:41:40;;;;;;;12.52;6.60;;;;;;;-144.57;100.00;62443.72;5046296;28;20060;-63
2024/02/27 06:44:06;;;;;;;15.63;6.65;;;;;;;-144.57;100.00;62443.72;5029834;28;20050;-62
2024/02/27 06:46:32;;;;;;;13.13;6.20;;;;;;;-144.57;100.00;62443.72;5046333;28;20091;-63
2024/02/27 06:48:58;;;;;;;10.90;6.20;;;;;;;-144.57;100.00;62443.72;5030667;28;20045;-64
2024/02/27 06:51:23;;;;;;;15.80;6.40;;;;;;;-144.57;100.00;62443.72;5030933;28;20045;-64
2024/02/27 06:53:49;;;;;;;10.85;6.00;;;;;;;-144.57;100.00;62443.72;5029430;28;20056;-62
2024/02/27 06:56:16;;;;;;;12.13;6.53;;;;;;;-144.57;100.00;62443.72;5029586;28;20100;-63
2024/02/27 06:58:41;;;;;;;11.35;6.60;;;;;;;-144.57;100.00;62443.72;5046253;28;20048;-61
2024/02/27 07:01:07;;;;;;;12.52;6.63;;;;;;;-144.57;100.00;62443.72;5030617;28;20041;-62
2024/02/27 07:03:33;;;;;;;13.45;6.97;;;;;;;-144.57;100.00;62443.72;5046051;28;20415;-61
2024/02/27 07:06:00;;;;;;;16.05;7.60;;;;;;;-144.57;100.00;62443.72;5030802;28;20052;-61
2024/02/27 07:08:26;;;;;;;14.73;7.65;;;;;;;-144.57;100.00;62443.72;5030907;28;20089;-60
2024/02/27 07:10:52;;;;;;;13.57;6.28;;;;;;;-144.57;100.00;62443.72;5019755;28;20127;-62
2024/02/27 07:13:18;;;;;;;17.50;6.80;;;;;;;-144.57;100.00;62443.72;5026985;28;20487;-62
2024/02/27 07:15:44;;;;;;;16.83;6.85;;;;;;;-144.57;100.00;62443.72;5014878;28;20577;-64
2024/02/27 07:18:11;;;;;;;14.75;7.10;;;;;;;-144.57;100.00;62443.72;4997129;28;20049;-61
2024/02/27 07:20:37;;;;;;;13.25;5.95;;;;;;;-144.57;100.00;62443.72;5019769;28;20515;-60
2024/02/27 07:23:03;;;;;;;13.80;7.40;;;;;;;-144.57;100.00;62443.72;5021399;28;20060;-62
2024/02/27 07:25:28;;;;;;;12.65;6.97;;;;;;;-144.57;100.00;62443.72;5013140;28;20037;-62
2024/02/27 07:27:54;;;;;;;12.95;6.82;;;;;;;-144.57;100.00;62443.72;5025231;28;20561;-62
2024/02/27 07:30:20;;;;;;;15.48;7.97;;;;;;;-144.57;100.00;62443.72;5034662;28;20045;-64
2024/02/27 07:32:45;;;;;;;14.88;8.93;;;;;;;-144.57;100.00;62443.72;5034400;28;20430;-61
2024/02/27 07:35:11;;;;;;;19.10;7.95;;;;;;;-144.57;100.00;62443.72;5033510;28;20045;-63
2024/02/27 07:37:38;;;;;;;18.30;8.57;;;;;;;-144.57;100.00;62443.72;5022213;28;20132;-62
2024/02/27 07:40:04;;;;;;;16.90;9.30;;;;;;;-144.57;100.00;62443.72;5034382;28;20367;-63
2024/02/27 07:42:30;;;;;;;16.45;8.35;;;;;;;-144.57;100.00;62443.72;5032327;28;20041;-61
2024/02/27 07:44:55;;;;;;;10.80;6.72;;;;;;;-144.57;100.00;62443.72;5034319;28;20099;-62
2024/02/27 07:47:21;;;;;;;14.93;7.30;;;;;;;-144.57;100.00;62443.72;5024566;28;20052;-62
2024/02/27 07:49:47;;;;;;;16.63;6.78;;;;;;;-144.57;100.00;62443.72;5034404;28;20569;-64
2024/02/27 07:52:13;;;;;;;14.88;7.13;;;;;;;-144.57;100.00;62443.72;5033682;28;20537;-60
2024/02/27 07:54:39;;;;;;;15.07;6.90;;;;;;;-144.57;100.00;62443.72;5034116;28;20045;-62
2024/02/27 07:57:05;;;;;;;13.27;6.80;;;;;;;-144.57;100.00;62443.72;5024621;28;20514;-60
2024/02/27 07:59:31;;;;;;;11.75;6.50;;;;;;;-144.57;100.00;62443.72;5014245;28;20044;-61
2024/02/27 08:01:57;;;;;;;11.25;7.05;;;;;;;-144.57;100.00;62443.72;5012396;28;20540;-62
2024/02/27 08:04:23;;;;;;;16.08;7.40;;;;;;;-144.57;100.00;62443.72;5014269;28;20041;-63
2024/02/27 08:06:48;;;;;;;15.10;7.85;;;;;;;-144.57;100.00;62443.72;5013792;28;20034;-62
2024/02/27 08:09:17;;;;;;;16.17;7.43;;;;;;;-144.57;100.00;62443.72;5013965;28;20050;-60
2024/02/27 08:11:44;;;;;;;12.57;7.18;;;;;;;-144.57;100.00;62443.72;5013703;28;20041;-60
2024/02/27 08:14:10;;;;;;;15.43;7.10;;;;;;;-144.57;100.00;62443.72;4996500;28;20545;-62
2024/02/27 08:16:35;;;;;;;10.65;6.90;;;;;;;-144.57;100.00;62443.72;5014024;28;20062;-62
2024/02/27 08:19:04;;;;;;;16.98;7.43;;;;;;;-144.57;100.00;62443.72;5012257;28;20500;-62
2024/02/27 08:21:33;;;;;;;12.80;6.88;;;;;;;-144.57;100.00;62443.72;5013883;28;20541;-62
2024/02/27 08:24:02;;;;;;;14.32;6.72;;;;;;;-144.57;100.00;62443.72;5048041;28;20518;-62
2024/02/27 08:26:28;;;;;;;12.30;6.88;;;;;;;-144.57;100.00;62443.72;5047915;28;20441;-62
2024/02/27 08:28:56;;;;;;;12.35;7.20;;;;;;;-144.57;100.00;62443.72;5048525;28;20049;-63
2024/02/27 08:31:23;;;;;;;13.23;7.80;;;;;;;-144.57;100.00;62443.72;5033304;28;20041;-63
2024/02/27 08:33:49;;;;;;;14.00;7.15;;;;;;;-144.57;100.00;62443.72;5019921;28;20483;-62
2024/02/27 08:36:14;;;;;;;12.85;7.10;;;;;;;-144.57;100.00;62443.72;5028731;28;20046;-61
2024/02/27 08:38:44;;;;;;;15.05;7.25;;;;;;;-144.57;100.00;62443.72;5029987;28;20546;-63
2024/02/27 08:41:10;;;;;;;14.27;7.22;;;;;;;-144.57;100.00;62443.72;5033045;28;20131;-62
2024/02/27 08:43:38;;;;;;;14.32;7.03;;;;;;;-144.57;100.00;62443.72;5032917;28;20096;-63
2024/02/27 08:46:04;;;;;;;15.57;7.30;;;;;;;-144.57;100.00;62443.72;5033183;28;20090;-63
2024/02/27 08:48:29;;;;;;;13.77;7.65;;;;;;;-144.57;100.00;62443.72;5032583;28;20045;-63
2024/02/27 08:50:55;;;;;;;13.88;7.85;;;;;;;-144.57;100.00;62443.72;5033131;28;20049;-64
2024/02/27 08:53:22;;;;;;;13.80;8.02;;;;;;;-144.57;100.00;62443.72;5028501;28;20427;-62
2024/02/27 08:55:47;;;;;;;11.35;7.25;;;;;;;-144.57;100.00;62443.72;5013109;28;20092;-62
2024/02/27 08:58:13;;;;;;;10.30;7.32;;;;;;;-144.57;100.00;62443.72;5012701;28;20050;-63
2024/02/27 09:00:39;;;;;;;12.40;7.63;;;;;;;-144.57;100.00;62443.72;5012893;28;20042;-64
2024/02/27 09:03:06;;;;;;;17.10;8.25;;;;;;;-144.57;100.00;62443.72;5024723;28;20140;-63
2024/02/27 09:05:31;;;;;;;12.25;7.47;;;;;;;-144.57;100.00;62443.72;5032374;28;20033;-63
2024/02/27 09:07:57;;;;;;;14.15;7.70;;;;;;;-144.57;100.00;62443.72;5032375;28;20062;-65
2024/02/27 09:10:23;;;;;;;15.85;7.95;;;;;;;-144.57;100.00;62443.72;5029112;28;20396;-64
2024/02/27 09:12:49;;;;;;;18.20;8.90;;;;;;;-144.57;100.00;62443.72;5012358;28;20503;-63
2024/02/27 09:15:16;;;;;;;12.50;7.68;;;;;;;-144.57;100.00;62443.72;5013867;28;20046;-63
2024/02/27 09:17:42;;;;;;;11.07;7.28;;;;;;;-144.57;100.00;62443.72;5032678;28;20462;-64
2024/02/27 09:20:08;;;;;;;13.90;7.88;;;;;;;-144.57;100.00;62443.72;5031923;28;20041;-65
2024/02/27 09:22:34;;;;;;;13.20;7.53;;;;;;;-144.57;100.00;62443.72;5030958;28;20052;-62
2024/02/27 09:24:59;;;;;;;13.82;8.40;;;;;;;-144.57;100.00;62443.72;5022858;28;20045;-63
2024/02/27 09:27:26;;;;;;;15.65;8.02;;;;;;;-144.57;100.00;62443.72;5031845;28;20068;-64
2024/02/27 09:30:05;;;;;;;14.57;7.55;;;;;;;-144.57;100.00;62443.72;5032165;28;20042;-63
2024/02/27 09:32:30;;;;;;;16.98;8.85;;;;;;;-144.57;100.00;62443.72;5032215;28;20086;-63
2024/02/27 09:34:56;;;;;;;17.58;8.55;;;;;;;-144.57;100.00;62443.72;5031955;28;20048;-65
2024/02/27 09:37:22;;;;;;;16.30;8.48;;;;;;;-144.57;100.00;62443.72;5046776;28;20045;-64
2024/02/27 09:39:48;;;;;;;18.13;8.32;;;;;;;-144.57;100.00;62443.72;5030485;28;20040;-64
2024/02/27 09:42:13;;;;;;;16.48;8.93;;;;;;;-144.57;100.00;62443.72;5031659;28;20053;-65
2024/02/27 09:44:43;;;;;;;18.75;8.48;;;;;;;-144.57;100.00;62443.72;5030876;28;20314;-66
2024/02/27 09:47:14;;;;;;;14.30;8.50;;;;;;;-144.57;100.00;62443.72;5011702;28;20521;-63
2024/02/27 09:49:45;;;;;;;18.15;9.57;;;;;;;-144.57;100.00;62443.72;5030081;28;20140;-64
2024/02/27 09:52:15;;;;;;;17.73;8.32;;;;;;;-144.57;100.00;62443.72;5031291;28;20053;-64
2024/02/27 09:54:41;;;;;;;16.48;8.68;;;;;;;-144.57;100.00;62443.72;5030622;28;20061;-63
2024/02/27 09:57:07;;;;;;;15.23;8.88;;;;;;;-144.57;100.00;62443.72;5011478;28;20456;-64
2024/02/27 09:59:34;;;;;;;14.50;8.32;;;;;;;-144.57;100.00;62443.72;5011535;28;20049;-66
2024/02/27 10:02:06;;;;;;;17.48;9.25;;;;;;;-144.57;100.00;62443.72;5011007;28;20508;-66
2024/02/27 10:04:39;;;;;;;18.05;8.93;;;;;;;-144.57;100.00;62443.72;4993957;28;20119;-65
2024/02/27 10:07:10;;;;;;;17.80;9.05;;;;;;;-144.57;100.00;62443.72;5009657;28;20085;-65
2024/02/27 10:09:54;;;;;;;16.35;9.10;;;;;;;-144.57;100.00;62443.72;5011538;28;20401;-64
2024/02/27 10:12:20;;;;;;;13.40;7.88;;;;;;;-144.57;100.00;62443.72;5009798;28;20042;-64
2024/02/27 10:14:46;;;;;;;16.48;8.90;;;;;;;-144.57;100.00;62443.72;5011290;28;20042;-64
2024/02/27 10:17:22;;;;;;;17.20;9.50;;;;;;;-144.57;100.00;62443.72;5024638;28;20148;-63
2024/02/27 10:19:48;;;;;;;16.88;8.93;;;;;;;-144.57;100.00;62443.72;5033347;28;20042;-63
2024/02/27 10:22:14;;;;;;;16.48;8.90;;;;;;;-144.57;100.00;62443.72;5019071;28;20050;-64
2024/02/27 10:24:39;;;;;;;16.92;8.00;;;;;;;-144.57;100.00;62443.72;5010551;28;20050;-64
2024/02/27 10:27:07;;;;;;;16.15;8.23;;;;;;;-144.57;100.00;62443.72;5011149;28;20092;-62
2024/02/27 10:29:33;;;;;;;18.65;8.95;;;;;;;-144.57;100.00;62443.72;5011112;28;20045;-63
2024/02/27 10:32:00;;;;;;;19.25;8.70;;;;;;;-144.57;100.00;62443.72;5030814;28;20503;-63
2024/02/27 10:34:26;;;;;;;13.80;8.43;;;;;;;-144.57;100.00;62443.72;5029620;28;20525;-63
2024/02/27 10:37:03;;;;;;;18.70;8.63;;;;;;;-144.57;100.00;62443.72;5025383;28;20140;-63
2024/02/27 10:39:31;;;;;;;16.48;8.57;;;;;;;-144.57;100.00;62443.72;5026557;28;20092;-65
2024/02/27 10:41:58;;;;;;;12.77;8.35;;;;;;;-144.57;100.00;62443.72;5030753;28;20073;-62
2024/02/27 10:44:28;;;;;;;17.73;9.10;;;;;;;-144.57;100.00;62443.72;5030802;28;20033;-62
2024/02/27 10:46:58;;;;;;;16.73;9.70;;;;;;;-144.57;100.00;62443.72;5027285;28;20400;-63
2024/02/27 10:49:24;;;;;;;17.88;9.25;;;;;;;-144.57;100.00;62443.72;5030262;28;20026;-64
2024/02/27 10:51:51;;;;;;;20.33;9.80;;;;;;;-144.57;100.00;62443.72;5035903;28;20069;-66
2024/02/27 10:54:17;;;;;;;18.90;9.93;;;;;;;-144.57;100.00;62443.72;5031324;28;20534;-65
2024/02/27 10:56:45;;;;;;;17.85;9.93;;;;;;;-144.57;100.00;62443.72;5037565;28;20047;-64
2024/02/27 10:59:12;;;;;;;19.85;10.00;;;;;;;-144.57;100.00;62443.72;5035678;28;20135;-64